Time;durP1;ratioP1;P1;durP2;ratioP2;P2;SDS_P1;SDS_P2;PMS_P1;PMS_P2;Temp;Humidity;BMP_temperature;BMP_pressure;BME280_temperature;BME280_humidity;BME280_pressure;Samples;Min_cycle;Max_cycle;Signal;HPM_P1;HPM_P2
2023/11/02 00:00:41;;;;;;;4.60;3.30;;;;;;;9.46;80.93;99197.55;106472;1270;61822;-84
2023/11/02 00:03:09;;;;;;;5.40;4.30;;;;;;;9.49;80.76;99199.83;107672;1276;60388;-85
2023/11/02 00:06:23;;;;;;;4.80;3.80;;;;;;;9.45;81.13;99203.65;107743;1273;71896;-85
2023/11/02 00:09:05;;;;;;;5.10;3.40;;;;;;;9.44;81.61;99201.50;105784;1272;69097;-85
2023/11/02 00:11:48;;;;;;;5.20;3.90;;;;;;;9.48;81.13;99202.06;107686;1277;71455;-86
2023/11/02 00:14:18;;;;;;;6.80;4.40;;;;;;;9.43;81.32;99199.09;105743;1270;60615;-82
2023/11/02 00:16:47;;;;;;;6.10;3.60;;;;;;;9.40;81.02;99200.34;104417;1276;60462;-80
2023/11/02 00:19:37;;;;;;;6.10;4.40;;;;;;;9.45;81.42;99201.23;104409;1275;74002;-80
2023/11/02 00:22:06;;;;;;;5.00;4.00;;;;;;;9.40;81.38;99197.08;104398;1276;68207;-81
2023/11/02 00:24:36;;;;;;;7.50;3.80;;;;;;;9.35;81.07;99196.50;104375;1276;72790;-81
2023/11/02 00:27:04;;;;;;;4.30;3.80;;;;;;;9.40;81.50;99201.27;104608;1273;60559;-83
2023/11/02 00:29:31;;;;;;;8.40;4.20;;;;;;;9.41;81.06;99199.45;104706;1270;60661;-82
2023/11/02 00:31:59;;;;;;;5.90;3.90;;;;;;;9.37;81.37;99202.60;104405;1277;72749;-83
2023/11/02 00:34:26;;;;;;;4.80;3.80;;;;;;;9.43;81.55;99204.91;104580;1276;72209;-83
2023/11/02 00:36:58;;;;;;;5.20;4.30;;;;;;;9.45;81.39;99201.54;104559;1276;72747;-80
2023/11/02 00:39:26;;;;;;;5.10;4.40;;;;;;;9.41;81.45;99205.65;104452;1278;60574;-76
2023/11/02 00:41:54;;;;;;;4.10;3.70;;;;;;;9.44;81.24;99205.73;104519;1277;60913;-77
2023/11/02 00:44:23;;;;;;;8.40;4.90;;;;;;;9.50;81.27;99204.59;104494;1277;72841;-77
2023/11/02 00:46:50;;;;;;;6.40;4.70;;;;;;;9.46;80.95;99206.45;104682;1271;69132;-76
2023/11/02 00:49:27;;;;;;;10.00;4.30;;;;;;;9.39;81.15;99204.63;104516;1272;74828;-76
2023/11/02 00:51:56;;;;;;;6.50;3.80;;;;;;;9.40;81.46;99205.66;104530;1273;62221;-76
2023/11/02 00:54:52;;;;;;;5.00;4.30;;;;;;;9.45;81.55;99202.55;104685;1278;60462;-77
2023/11/02 00:57:26;;;;;;;7.30;4.70;;;;;;;9.41;81.25;99206.79;105602;1276;71603;-82
2023/11/02 00:59:58;;;;;;;6.20;4.50;;;;;;;9.33;82.15;99202.52;105476;1270;70178;-81
2023/11/02 01:02:30;;;;;;;5.50;4.20;;;;;;;9.32;81.54;99204.99;105616;1270;70891;-79
2023/11/02 01:05:00;;;;;;;5.30;4.40;;;;;;;9.37;81.72;99201.58;106369;1276;59208;-81
2023/11/02 01:07:28;;;;;;;7.40;5.10;;;;;;;9.34;81.85;99204.86;104749;1276;60446;-81
2023/11/02 01:09:59;;;;;;;5.60;4.60;;;;;;;9.28;82.09;99209.27;105854;1273;72998;-84
2023/11/02 01:12:35;;;;;;;5.90;3.90;;;;;;;9.24;81.74;99206.66;107054;1270;68811;-83
2023/11/02 01:15:10;;;;;;;5.80;4.90;;;;;;;9.31;82.02;99209.89;107688;1270;73253;-85
2023/11/02 01:17:44;;;;;;;7.00;4.90;;;;;;;9.28;81.91;99209.14;107774;1270;58870;-85
2023/11/02 01:20:43;;;;;;;5.60;4.30;;;;;;;9.22;81.90;99209.18;107775;1270;59119;-84
2023/11/02 01:23:15;;;;;;;6.20;4.40;;;;;;;9.22;81.60;99213.30;106323;1273;72627;-83
2023/11/02 01:25:44;;;;;;;5.20;4.20;;;;;;;9.31;81.37;99215.31;104874;1275;70177;-85
2023/11/02 01:28:17;;;;;;;7.00;4.70;;;;;;;9.30;81.27;99213.00;104895;1272;71188;-86
2023/11/02 01:31:13;;;;;;;6.30;4.60;;;;;;;9.24;80.83;99219.45;105093;1271;60606;-82
2023/11/02 01:33:41;;;;;;;7.70;3.50;;;;;;;9.18;80.80;99220.41;104626;1274;60930;-83
2023/11/02 01:36:08;;;;;;;5.70;4.40;;;;;;;9.23;80.06;99220.02;104565;1273;72764;-83
2023/11/02 01:38:38;;;;;;;9.60;5.00;;;;;;;9.23;79.89;99218.99;104733;1276;70225;-82
2023/11/02 01:41:09;;;;;;;8.00;5.30;;;;;;;9.18;80.20;99216.44;104524;1280;71123;-82
2023/11/02 01:43:56;;;;;;;7.90;4.30;;;;;;;9.13;79.99;99214.30;104690;1278;61717;-82
2023/11/02 01:46:27;;;;;;;6.00;4.20;;;;;;;9.16;79.51;99217.70;104512;1271;60668;-82
2023/11/02 01:48:58;;;;;;;5.50;4.30;;;;;;;9.13;79.22;99221.76;104600;1270;72840;-84
2023/11/02 01:51:31;;;;;;;7.80;4.20;;;;;;;9.04;79.17;99224.84;104901;1274;70420;-81
2023/11/02 01:54:21;;;;;;;4.20;3.50;;;;;;;8.95;79.14;99222.20;104775;1271;72742;-83
2023/11/02 01:56:54;;;;;;;5.30;4.20;;;;;;;8.94;79.31;99224.95;105852;1270;60383;-85
2023/11/02 01:59:32;;;;;;;6.50;4.10;;;;;;;8.84;79.38;99224.79;105832;1270;59113;-81
2023/11/02 02:02:06;;;;;;;5.40;4.40;;;;;;;8.72;79.30;99230.54;106058;1276;74847;-81
2023/11/02 02:04:40;;;;;;;6.70;3.90;;;;;;;8.63;80.43;99234.42;104837;1276;70678;-83
2023/11/02 02:07:16;;;;;;;;;;;;;;;8.64;80.23;99236.13;104659;1277;72442;-82
2023/11/02 02:09:57;;;;;;;6.00;4.30;;;;;;;8.56;80.73;99237.32;104799;1278;60592;-81
2023/11/02 02:12:44;;;;;;;8.20;5.90;;;;;;;8.43;81.16;99238.78;105060;1276;60516;-84
2023/11/02 02:17:49;;;;;;;5.20;4.30;;;;;;;8.33;81.63;99234.16;104539;1277;60629;-80
2023/11/02 02:20:20;;;;;;;6.40;4.20;;;;;;;8.32;81.89;99237.63;104500;1279;71579;-81
2023/11/02 02:23:18;;;;;;;4.40;3.70;;;;;;;8.20;82.03;99237.98;106873;1273;60497;-82
2023/11/02 02:26:07;;;;;;;4.90;3.90;;;;;;;8.08;82.72;99236.99;105308;1276;60471;-79
2023/11/02 02:28:57;;;;;;;4.50;3.20;;;;;;;8.10;82.87;99241.48;105530;1276;74048;-77
2023/11/02 02:31:41;;;;;;;8.80;5.00;;;;;;;8.10;82.79;99248.52;105332;1279;69201;-78
2023/11/02 02:34:11;;;;;;;4.20;3.80;;;;;;;7.99;82.96;99243.48;104753;1274;72873;-76
2023/11/02 02:36:59;;;;;;;7.90;4.40;;;;;;;7.89;83.34;99247.52;104946;1276;62371;-77
2023/11/02 02:39:26;;;;;;;6.10;3.70;;;;;;;7.82;83.45;99246.30;104640;1270;60603;-78
2023/11/02 02:41:59;;;;;;;5.30;3.70;;;;;;;7.87;83.33;99248.63;104476;1276;73931;-80
2023/11/02 02:44:27;;;;;;;16.30;9.30;;;;;;;7.84;83.29;99251.15;104607;1270;70335;-80
2023/11/02 02:46:56;;;;;;;4.80;4.10;;;;;;;7.77;83.66;99249.73;104736;1274;72602;-82
2023/11/02 02:49:23;;;;;;;6.80;3.90;;;;;;;7.68;83.77;99251.71;104889;1270;60575;-82
2023/11/02 02:51:51;;;;;;;6.10;3.40;;;;;;;7.62;84.02;99251.92;104659;1270;60644;-82
2023/11/02 02:54:19;;;;;;;5.00;3.50;;;;;;;7.65;83.74;99251.73;104752;1279;74386;-81
2023/11/02 02:56:48;;;;;;;5.80;4.30;;;;;;;7.63;83.58;99251.10;104957;1277;69321;-80
2023/11/02 02:59:16;;;;;;;8.40;4.50;;;;;;;7.53;83.75;99255.50;105369;1273;72738;-81
2023/11/02 03:01:46;;;;;;;4.40;3.70;;;;;;;7.45;83.94;99254.98;106641;1273;60304;-80
2023/11/02 03:04:15;;;;;;;5.00;3.70;;;;;;;7.45;83.87;99262.52;106894;1270;60311;-84
2023/11/02 03:06:47;;;;;;;4.30;3.10;;;;;;;7.50;83.59;99269.99;104736;1271;73984;-84
2023/11/02 03:09:16;;;;;;;4.30;3.40;;;;;;;7.41;83.76;99274.00;104681;1279;70569;-82
2023/11/02 03:11:45;;;;;;;5.30;3.60;;;;;;;7.32;83.60;99278.83;104756;1271;72727;-78
2023/11/02 03:14:16;;;;;;;4.00;3.20;;;;;;;7.23;83.63;99284.30;104703;1271;61745;-81
2023/11/02 03:16:44;;;;;;;4.10;3.00;;;;;;;7.26;83.58;99285.59;104706;1271;60674;-83
2023/11/02 03:19:42;;;;;;;3.40;3.10;;;;;;;7.25;83.33;99288.66;104830;1271;74010;-83
2023/11/02 03:22:12;;;;;;;5.20;3.40;;;;;;;7.15;83.34;99287.25;104888;1274;70654;-80
2023/11/02 03:24:46;;;;;;;5.50;3.40;;;;;;;7.08;83.42;99288.14;105004;1270;74925;-81
2023/11/02 03:27:17;;;;;;;4.70;2.90;;;;;;;7.11;83.16;99289.48;104598;1273;60540;-82
2023/11/02 03:29:51;;;;;;;4.50;2.90;;;;;;;7.09;82.90;99291.77;107792;1270;59096;-82
2023/11/02 03:32:37;;;;;;;;;;;;;;;6.99;82.97;99291.36;108076;1270;72424;-83
2023/11/02 03:35:18;;;;;;;5.10;3.20;;;;;;;6.93;82.99;99288.64;108251;1270;69047;-81
2023/11/02 03:37:56;;;;;;;7.50;5.30;;;;;;;6.97;82.98;99297.55;108296;1270;71177;-82
2023/11/02 03:40:30;;;;;;;6.90;4.10;;;;;;;6.92;82.95;99298.27;108314;1270;59381;-84
2023/11/02 03:43:04;;;;;;;4.10;3.60;;;;;;;6.85;83.02;99297.88;108309;1270;59175;-85
2023/11/02 03:45:41;;;;;;;4.60;3.10;;;;;;;6.82;82.96;99295.71;108178;1270;72665;-83
2023/11/02 03:48:42;;;;;;;5.30;3.20;;;;;;;6.88;82.77;99293.73;107662;1270;69054;-80
2023/11/02 03:51:22;;;;;;;5.10;3.60;;;;;;;6.83;82.66;99290.98;107888;1271;73583;-78
2023/11/02 03:54:24;;;;;;;3.60;3.30;;;;;;;6.76;82.61;99294.20;107719;1273;58891;-80
2023/11/02 03:57:02;;;;;;;4.00;2.90;;;;;;;6.73;82.68;99294.48;108102;1272;59229;-81
2023/11/02 03:59:31;;;;;;;3.40;2.60;;;;;;;6.79;82.25;99298.35;108052;1270;72644;-82
2023/11/02 04:02:00;;;;;;;11.00;7.30;;;;;;;6.76;82.26;99297.09;108221;1270;69067;-81
2023/11/02 04:04:47;;;;;;;3.90;3.10;;;;;;;6.67;82.39;99293.86;108069;1270;71457;-81
2023/11/02 04:07:56;;;;;;;6.50;4.00;;;;;;;6.59;82.48;99296.66;108070;1270;58792;-80
2023/11/02 04:10:27;;;;;;;4.90;2.80;;;;;;;6.57;82.15;99301.05;107477;1278;59021;-82
2023/11/02 04:13:04;;;;;;;5.40;3.80;;;;;;;6.61;82.10;99307.36;107297;1279;71649;-84
2023/11/02 04:15:31;;;;;;;5.70;4.50;;;;;;;6.52;82.27;99307.50;107777;1270;69753;-84
2023/11/02 04:17:59;;;;;;;6.70;3.20;;;;;;;6.43;82.28;99307.89;108123;1270;71585;-86
2023/11/02 04:21:54;;;;;;;3.90;2.90;;;;;;;6.43;82.37;99299.30;106431;1289;612817;-82
2023/11/02 04:24:21;;;;;;;3.20;2.80;;;;;;;6.44;82.09;99301.13;108843;1266;56751;-82
2023/11/02 04:26:47;;;;;;;6.20;3.30;;;;;;;6.36;81.99;99301.52;109376;1257;57159;-82
2023/11/02 04:29:14;;;;;;;4.40;3.70;;;;;;;6.26;82.34;99303.58;109673;1253;56752;-84
2023/11/02 04:31:41;;;;;;;3.80;3.20;;;;;;;6.19;82.43;99302.33;109580;1254;68818;-83
2023/11/02 04:34:08;;;;;;;5.10;3.10;;;;;;;6.22;82.33;99299.02;109369;1254;179773;-79
2023/11/02 04:36:35;;;;;;;5.20;3.20;;;;;;;6.21;82.53;99291.96;109715;1253;59193;-83
2023/11/02 04:39:01;;;;;;;4.50;3.20;;;;;;;6.15;82.44;99292.02;109614;1253;58833;-84
2023/11/02 04:41:28;;;;;;;6.50;3.90;;;;;;;6.06;82.59;99293.56;109638;1253;70634;-84
2023/11/02 04:43:55;;;;;;;4.20;3.20;;;;;;;6.00;82.66;99294.83;109819;1251;68816;-84
2023/11/02 04:46:21;;;;;;;4.10;3.30;;;;;;;6.04;82.50;99291.63;109603;1252;71380;-84
2023/11/02 04:48:48;;;;;;;3.90;3.50;;;;;;;6.04;82.74;99296.21;109600;1252;56920;-83
2023/11/02 04:51:15;;;;;;;5.10;3.30;;;;;;;5.97;82.70;99300.61;109699;1253;58774;-81
2023/11/02 04:53:42;;;;;;;4.10;3.70;;;;;;;5.90;83.12;99298.95;109772;1252;71539;-81
2023/11/02 04:56:08;;;;;;;4.60;3.40;;;;;;;5.90;82.94;99301.98;109780;1253;68721;-83
2023/11/02 04:58:35;;;;;;;6.50;3.70;;;;;;;5.97;82.76;99300.98;109685;1253;71328;-83
2023/11/02 05:01:02;;;;;;;5.20;4.20;;;;;;;5.97;82.75;99306.03;109630;1253;57972;-84
2023/11/02 05:03:29;;;;;;;7.20;4.10;;;;;;;5.92;82.81;99308.60;109600;1253;58806;-86
2023/11/02 05:05:55;;;;;;;5.80;3.80;;;;;;;5.89;82.99;99312.17;109615;1252;71690;-87
2023/11/02 05:08:22;;;;;;;4.50;3.50;;;;;;;5.95;82.69;99313.03;109107;1251;68860;-86
2023/11/02 05:10:49;;;;;;;9.10;4.10;;;;;;;6.03;82.26;99316.05;108017;1253;71195;-84
2023/11/02 05:13:15;;;;;;;5.20;3.40;;;;;;;5.99;82.46;99315.35;107866;1251;59429;-84
2023/11/02 05:15:42;;;;;;;6.50;3.70;;;;;;;5.96;82.49;99315.31;107618;1253;60334;-82
2023/11/02 05:18:23;;;;;;;4.80;3.20;;;;;;;5.93;82.28;99311.31;107640;1251;72875;-85
2023/11/02 05:20:57;;;;;;;4.10;3.30;;;;;;;6.02;82.17;99310.11;107444;1254;69249;-82
2023/11/02 05:23:24;;;;;;;;;;;;;;;6.06;81.92;99314.13;107216;1254;71192;-82
2023/11/02 05:25:50;;;;;;;6.60;3.80;;;;;;;6.04;81.96;99321.04;107146;1254;59976;-80
2023/11/02 05:28:17;;;;;;;4.70;3.70;;;;;;;6.02;82.01;99329.29;107630;1253;59632;-82
2023/11/02 05:30:44;;;;;;;3.50;2.80;;;;;;;6.04;81.61;99335.94;107275;1253;71648;-85
2023/11/02 05:33:11;;;;;;;3.30;2.60;;;;;;;6.16;81.21;99337.98;107290;1254;69174;-85
2023/11/02 05:35:37;;;;;;;5.50;3.00;;;;;;;6.19;80.94;99339.27;107763;1254;72756;-85
2023/11/02 05:38:04;;;;;;;3.40;3.00;;;;;;;6.17;80.93;99349.71;107946;1252;59685;-80
2023/11/02 05:40:31;;;;;;;5.10;3.40;;;;;;;6.14;81.04;99353.11;108186;1253;59579;-84
2023/11/02 05:42:58;;;;;;;4.90;2.80;;;;;;;6.15;81.01;99356.17;108220;1253;70742;-82
2023/11/02 05:45:25;;;;;;;3.40;2.70;;;;;;;6.26;80.87;99355.77;106975;1257;68849;-80
2023/11/02 05:47:52;;;;;;;4.60;3.50;;;;;;;6.32;80.63;99361.60;107082;1259;71148;-81
2023/11/02 05:50:18;;;;;;;5.50;3.80;;;;;;;6.27;80.48;99364.89;107651;1254;59675;-82
2023/11/02 05:54:41;;;;;;;4.60;2.80;;;;;;;6.21;80.60;99371.29;104070;1292;601138;-83
2023/11/02 05:57:11;;;;;;;3.10;2.80;;;;;;;6.26;80.60;99374.80;106323;1265;61658;-85
2023/11/02 05:59:39;;;;;;;4.30;3.60;;;;;;;6.38;80.24;99381.94;106542;1267;60361;-81
2023/11/02 06:02:08;;;;;;;3.70;2.90;;;;;;;6.40;80.21;99381.90;107816;1267;70475;-81
2023/11/02 06:04:36;;;;;;;4.70;3.40;;;;;;;6.42;80.38;99386.48;107620;1267;69154;-81
2023/11/02 06:07:03;;;;;;;5.10;3.60;;;;;;;6.44;79.75;99390.77;108151;1267;71377;-81
2023/11/02 06:09:31;;;;;;;3.00;2.60;;;;;;;6.51;79.25;99395.01;107815;1264;177187;-79
2023/11/02 06:11:59;;;;;;;4.10;2.90;;;;;;;6.65;78.92;99397.20;108271;1264;59316;-80
2023/11/02 06:14:26;;;;;;;7.60;3.60;;;;;;;6.69;78.91;99397.34;108366;1264;70978;-79
2023/11/02 06:16:54;;;;;;;4.80;3.40;;;;;;;6.72;78.77;99393.20;108385;1266;69674;-76
2023/11/02 06:19:22;;;;;;;5.10;3.50;;;;;;;6.75;78.74;99388.52;108482;1263;71625;-82
2023/11/02 06:21:49;;;;;;;6.10;3.50;;;;;;;6.80;78.14;99391.47;108936;1253;60388;-79
2023/11/02 06:24:16;;;;;;;6.30;3.50;;;;;;;6.95;77.85;99388.64;109043;1253;58801;-82
2023/11/02 06:26:44;;;;;;;4.10;3.30;;;;;;;7.01;77.58;99391.52;108681;1253;70803;-81
2023/11/02 06:29:12;;;;;;;7.60;3.50;;;;;;;7.03;77.16;99395.88;108583;1253;68737;-81
2023/11/02 06:31:41;;;;;;;3.80;3.40;;;;;;;7.04;77.22;99395.97;107502;1254;71399;-81
2023/11/02 06:34:09;;;;;;;3.80;3.40;;;;;;;7.07;77.06;99400.77;106733;1253;60079;-83
2023/11/02 06:36:36;;;;;;;5.10;3.50;;;;;;;7.14;76.77;99400.41;106473;1256;59557;-79
2023/11/02 06:39:05;;;;;;;5.10;3.80;;;;;;;7.30;76.10;99400.61;106263;1253;71839;-81
2023/11/02 06:41:33;;;;;;;4.40;4.00;;;;;;;7.37;75.88;99398.67;106442;1253;70286;-78
2023/11/02 06:44:01;;;;;;;4.90;3.60;;;;;;;7.37;75.62;99399.04;106213;1256;71517;-80
2023/11/02 06:46:28;;;;;;;3.70;3.40;;;;;;;7.35;75.64;99396.72;106221;1259;59680;-80
2023/11/02 06:48:55;;;;;;;5.70;4.20;;;;;;;7.35;75.49;99398.30;107881;1253;60072;-79
2023/11/02 06:51:23;;;;;;;6.50;3.70;;;;;;;7.37;75.40;99405.16;107860;1253;70623;-77
2023/11/02 06:53:51;;;;;;;4.50;3.30;;;;;;;7.50;75.32;99404.61;106264;1258;69199;-78
2023/11/02 06:56:18;;;;;;;6.10;3.60;;;;;;;7.59;74.50;99407.53;106650;1253;71420;-81
2023/11/02 06:58:46;;;;;;;5.40;3.90;;;;;;;7.61;74.61;99405.06;106202;1253;60086;-79
2023/11/02 07:01:13;;;;;;;5.00;3.80;;;;;;;7.62;74.49;99405.67;106027;1254;60046;-76
2023/11/02 07:03:42;;;;;;;5.20;4.20;;;;;;;7.63;74.14;99405.10;105989;1253;72964;-82
2023/11/02 07:06:10;;;;;;;4.40;3.80;;;;;;;7.65;74.29;99407.60;105908;1256;70266;-78
2023/11/02 07:08:38;;;;;;;4.60;3.50;;;;;;;7.68;74.46;99403.48;105832;1254;72504;-80
2023/11/02 07:11:05;;;;;;;4.30;3.20;;;;;;;7.82;74.30;99405.53;105811;1254;60405;-80
2023/11/02 07:13:32;;;;;;;6.10;3.40;;;;;;;7.94;74.09;99402.94;106285;1255;60028;-80
2023/11/02 07:16:00;;;;;;;5.60;3.90;;;;;;;7.99;73.85;99404.45;106401;1258;71906;-79
2023/11/02 07:18:27;;;;;;;5.10;4.30;;;;;;;8.04;73.73;99407.10;106226;1254;70598;-81
2023/11/02 07:20:55;;;;;;;5.80;4.50;;;;;;;8.12;73.73;99406.23;105821;1257;71492;-80
2023/11/02 07:23:22;;;;;;;5.40;4.40;;;;;;;8.19;72.93;99406.42;105832;1256;60149;-82
2023/11/02 07:25:51;;;;;;;5.60;4.00;;;;;;;8.25;73.01;99406.31;106346;1256;60029;-79
2023/11/02 07:28:19;;;;;;;6.50;4.30;;;;;;;8.38;72.75;99405.33;105945;1259;71086;-81
2023/11/02 07:30:46;;;;;;;5.40;4.00;;;;;;;8.62;72.85;99402.68;105895;1254;69992;-79
2023/11/02 07:33:14;;;;;;;3.90;3.50;;;;;;;8.76;72.32;99402.20;105782;1256;74369;-79
2023/11/02 07:35:41;;;;;;;4.80;3.60;;;;;;;8.83;71.53;99402.46;106212;1256;61241;-79
2023/11/02 07:38:09;;;;;;;5.20;4.60;;;;;;;8.90;71.01;99402.16;107751;1256;59131;-80
2023/11/02 07:40:36;;;;;;;4.60;3.80;;;;;;;8.95;70.61;99405.83;107722;1253;71739;-79
2023/11/02 07:43:04;;;;;;;4.60;3.90;;;;;;;9.01;70.95;99403.45;106404;1258;68902;-80
2023/11/02 07:45:31;;;;;;;4.60;4.20;;;;;;;9.08;71.00;99404.64;105909;1257;72773;-81
2023/11/02 07:48:01;;;;;;;5.50;3.80;;;;;;;9.13;70.38;99402.41;105810;1258;59724;-80
2023/11/02 07:50:28;;;;;;;5.80;3.80;;;;;;;9.19;70.74;99397.61;105631;1253;59690;-80
2023/11/02 07:52:55;;;;;;;5.50;4.00;;;;;;;9.23;70.21;99405.02;105723;1254;72357;-81
2023/11/02 07:55:23;;;;;;;5.30;3.60;;;;;;;9.29;70.29;99410.65;105878;1253;69454;-81
2023/11/02 07:57:50;;;;;;;8.10;3.80;;;;;;;9.35;70.23;99411.38;105813;1258;71426;-79
2023/11/02 08:00:18;;;;;;;5.30;3.90;;;;;;;9.51;70.29;99409.28;105970;1256;60083;-81
2023/11/02 08:02:46;;;;;;;5.70;4.00;;;;;;;9.65;70.58;99404.30;105763;1258;59999;-80
2023/11/02 08:05:14;;;;;;;6.30;4.40;;;;;;;9.74;69.93;99409.02;105898;1254;71700;-80
2023/11/02 08:07:41;;;;;;;4.50;3.80;;;;;;;9.82;70.00;99406.20;105979;1256;70440;-79
2023/11/02 08:10:09;;;;;;;5.60;3.80;;;;;;;9.92;69.69;99402.58;105790;1258;72663;-79
2023/11/02 08:12:36;;;;;;;6.80;3.80;;;;;;;10.01;70.10;99401.89;105781;1258;61105;-78
2023/11/02 08:15:04;;;;;;;5.90;4.10;;;;;;;10.09;69.90;99404.41;105792;1254;59950;-82
2023/11/02 08:17:33;;;;;;;5.70;4.00;;;;;;;10.18;69.87;99398.66;105955;1254;73046;-80
2023/11/02 08:20:02;;;;;;;4.00;3.30;;;;;;;10.30;69.86;99407.73;105814;1254;70303;-82
2023/11/02 08:22:30;;;;;;;4.10;3.40;;;;;;;10.41;68.83;99407.52;106003;1253;71405;-71
2023/11/02 08:24:58;;;;;;;4.00;3.20;;;;;;;10.50;68.60;99412.89;106856;1253;59711;-76
2023/11/02 08:27:28;;;;;;;4.30;3.70;;;;;;;10.58;68.08;99420.14;106600;1253;59983;-71
2023/11/02 08:29:56;;;;;;;4.80;3.10;;;;;;;10.64;68.00;99419.13;106140;1253;70969;-76
2023/11/02 08:32:23;;;;;;;6.30;4.20;;;;;;;10.66;67.28;99421.03;105886;1253;70000;-78
2023/11/02 08:34:51;;;;;;;4.60;3.60;;;;;;;10.68;67.07;99422.49;105755;1256;71844;-75
2023/11/02 08:37:19;;;;;;;4.80;3.90;;;;;;;10.73;67.17;99420.73;105735;1253;59743;-75
2023/11/02 08:39:46;;;;;;;3.60;3.10;;;;;;;10.83;67.63;99418.84;105764;1253;59658;-72
2023/11/02 08:42:14;;;;;;;5.30;3.80;;;;;;;11.00;68.43;99416.24;105735;1253;73379;-73
2023/11/02 08:44:42;;;;;;;7.20;4.20;;;;;;;11.18;67.93;99415.83;105790;1253;70123;-74
2023/11/02 08:47:12;;;;;;;3.50;3.10;;;;;;;11.38;66.97;99415.71;105782;1255;70229;-74
2023/11/02 08:49:41;;;;;;;4.30;3.40;;;;;;;11.58;66.95;99412.77;105757;1255;59545;-74
2023/11/02 08:52:08;;;;;;;4.80;3.80;;;;;;;11.84;66.37;99420.35;105801;1256;59567;-72
2023/11/02 08:54:36;;;;;;;4.80;3.70;;;;;;;12.11;65.01;99413.89;105631;1253;71828;-71
2023/11/02 08:57:03;;;;;;;4.50;3.70;;;;;;;12.43;64.35;99408.59;105514;1258;69101;-70
2023/11/02 08:59:31;;;;;;;8.10;4.50;;;;;;;12.82;63.85;99407.73;105452;1256;72843;-70
2023/11/02 09:01:59;;;;;;;5.80;4.00;;;;;;;13.23;62.11;99408.78;105439;1253;60166;-70
2023/11/02 09:04:28;;;;;;;4.00;3.60;;;;;;;13.60;61.01;99405.52;105752;1253;60355;-71
2023/11/02 09:06:56;;;;;;;4.10;3.70;;;;;;;13.91;60.48;99402.62;105534;1253;73671;-70
2023/11/02 09:09:24;;;;;;;4.30;3.80;;;;;;;14.31;60.25;99397.35;105822;1253;72318;-70
2023/11/02 09:11:52;;;;;;;4.90;3.70;;;;;;;14.63;58.07;99399.98;105677;1257;72598;-69
2023/11/02 09:14:20;;;;;;;5.30;3.70;;;;;;;14.63;57.78;99394.91;105604;1256;59687;-72
2023/11/02 09:16:48;;;;;;;4.60;4.10;;;;;;;14.63;57.81;99392.29;105540;1253;60505;-70
2023/11/02 09:19:15;;;;;;;4.30;3.50;;;;;;;14.82;58.99;99388.81;105322;1253;74136;-70
2023/11/02 09:21:43;;;;;;;4.70;3.80;;;;;;;15.19;58.28;99390.63;105836;1253;70281;-72
2023/11/02 09:24:11;;;;;;;8.20;4.20;;;;;;;15.53;57.08;99383.42;105525;1253;74809;-77
2023/11/02 09:26:40;;;;;;;13.30;3.70;;;;;;;15.72;56.82;99382.98;105833;1253;59716;-73
2023/11/02 09:29:08;;;;;;;7.50;4.00;;;;;;;15.92;56.57;99385.17;105800;1253;59717;-73
2023/11/02 09:31:35;;;;;;;5.40;4.60;;;;;;;16.03;56.48;99379.85;105339;1258;73028;-74
2023/11/02 09:34:03;;;;;;;4.50;3.80;;;;;;;16.10;56.19;99374.80;105700;1255;69015;-70
2023/11/02 09:36:31;;;;;;;5.90;4.40;;;;;;;16.07;55.89;99370.57;105754;1255;71836;-71
2023/11/02 09:38:59;;;;;;;4.90;4.10;;;;;;;15.96;55.90;99369.73;105637;1258;60560;-74
2023/11/02 09:41:27;;;;;;;5.40;4.80;;;;;;;15.94;55.79;99370.77;105433;1253;59670;-73
2023/11/02 09:43:57;;;;;;;5.80;4.50;;;;;;;15.84;56.15;99364.38;105821;1258;75166;-72
2023/11/02 09:46:25;;;;;;;6.20;5.00;;;;;;;15.67;56.21;99364.20;105758;1253;70101;-71
2023/11/02 09:48:52;;;;;;;6.10;4.10;;;;;;;15.63;56.95;99356.17;105759;1256;72556;-70
2023/11/02 09:51:20;;;;;;;4.30;3.90;;;;;;;15.72;56.67;99360.98;105678;1253;60076;-73
2023/11/02 09:53:47;;;;;;;4.90;4.30;;;;;;;15.97;56.23;99357.98;105696;1253;59753;-73
2023/11/02 09:56:15;;;;;;;5.20;4.40;;;;;;;16.35;55.15;99355.53;105631;1253;75204;-75
2023/11/02 09:58:42;;;;;;;6.00;4.80;;;;;;;16.64;54.58;99350.06;105672;1253;71003;-72
2023/11/02 10:01:11;;;;;;;5.50;3.60;;;;;;;16.78;53.93;99350.59;105731;1256;74900;-75
2023/11/02 10:03:39;;;;;;;4.10;3.60;;;;;;;16.69;54.03;99348.55;105688;1253;62400;-74
2023/11/02 10:06:07;;;;;;;8.20;5.00;;;;;;;16.80;54.47;99346.54;105795;1253;60550;-74
2023/11/02 10:08:35;;;;;;;5.40;4.40;;;;;;;17.01;54.06;99349.52;105524;1253;74114;-71
2023/11/02 10:11:14;;;;;;;4.70;4.00;;;;;;;17.31;53.57;99349.12;105265;1258;71176;-72
2023/11/02 10:13:43;;;;;;;4.70;4.30;;;;;;;17.69;52.50;99347.79;105827;1253;71539;-71
2023/11/02 10:16:10;;;;;;;5.70;4.20;;;;;;;17.91;51.25;99349.66;105330;1253;60493;-69
2023/11/02 10:18:39;;;;;;;5.30;4.60;;;;;;;18.14;51.42;99342.20;105793;1258;61063;-73
2023/11/02 10:21:08;;;;;;;7.50;4.70;;;;;;;18.56;50.82;99336.52;106013;1254;73918;-73
2023/11/02 10:23:54;;;;;;;4.60;4.10;;;;;;;19.06;49.72;99337.86;106090;1253;70510;-73
2023/11/02 10:26:25;;;;;;;5.80;3.70;;;;;;;19.46;48.46;99336.93;105473;1253;73152;-74
2023/11/02 10:28:54;;;;;;;5.40;4.10;;;;;;;19.65;48.23;99340.89;105536;1254;60729;-74
2023/11/02 10:31:23;;;;;;;4.50;4.10;;;;;;;19.89;47.92;99337.27;105940;1253;60549;-73
2023/11/02 10:33:52;;;;;;;5.70;4.70;;;;;;;20.32;47.71;99334.41;105583;1253;72704;-74
2023/11/02 10:36:19;;;;;;;4.50;3.50;;;;;;;20.75;46.05;99331.52;105766;1253;69851;-72
2023/11/02 10:38:47;;;;;;;5.20;3.70;;;;;;;20.95;45.47;99328.59;105839;1255;73366;-70
2023/11/02 10:41:16;;;;;;;4.20;3.60;;;;;;;21.03;45.06;99328.83;105649;1261;60726;-71
2023/11/02 10:43:45;;;;;;;5.70;3.90;;;;;;;21.12;45.02;99325.89;105633;1253;60536;-72
2023/11/02 10:46:12;;;;;;;4.30;3.90;;;;;;;21.28;45.07;99329.09;105938;1253;74047;-72
2023/11/02 10:48:40;;;;;;;5.30;3.80;;;;;;;21.59;44.94;99328.40;105516;1258;68885;-74
2023/11/02 10:51:22;;;;;;;5.30;4.10;;;;;;;22.02;43.91;99335.23;105929;1253;74963;-70
2023/11/02 10:54:08;;;;;;;4.60;4.10;;;;;;;22.16;43.20;99332.15;105843;1256;60605;-71
2023/11/02 10:56:40;;;;;;;4.80;3.80;;;;;;;22.30;43.46;99325.98;105647;1257;60381;-69
2023/11/02 10:59:08;;;;;;;5.20;3.60;;;;;;;22.74;42.57;99321.20;105651;1258;74278;-73
2023/11/02 11:01:36;;;;;;;8.20;4.60;;;;;;;22.97;41.99;99320.02;105315;1257;69398;-70
2023/11/02 11:04:05;;;;;;;5.60;4.50;;;;;;;22.99;41.61;99320.52;105830;1253;73665;-73
2023/11/02 11:06:33;;;;;;;4.10;3.70;;;;;;;23.01;41.74;99316.44;105764;1253;60381;-72
2023/11/02 11:09:00;;;;;;;5.00;4.40;;;;;;;22.63;41.87;99316.45;105573;1261;60414;-69
2023/11/02 11:11:27;;;;;;;5.90;5.30;;;;;;;21.95;43.10;99317.27;105381;1259;76170;-71
2023/11/02 11:13:56;;;;;;;7.30;5.20;;;;;;;21.27;43.75;99320.53;105524;1256;68935;-71
2023/11/02 11:16:23;;;;;;;5.20;4.70;;;;;;;20.69;44.82;99318.45;105702;1257;72742;-70
2023/11/02 11:18:52;;;;;;;4.50;4.10;;;;;;;20.12;45.86;99321.84;105269;1261;60517;-72
2023/11/02 11:21:20;;;;;;;4.50;4.00;;;;;;;19.79;46.92;99322.69;105876;1253;60395;-73
2023/11/02 11:23:48;;;;;;;9.00;4.60;;;;;;;19.69;46.90;99321.38;105688;1254;74014;-69
2023/11/02 11:26:16;;;;;;;4.10;3.60;;;;;;;19.41;47.35;99319.96;105921;1253;69841;-72
2023/11/02 11:28:43;;;;;;;7.20;4.00;;;;;;;19.14;47.79;99313.12;105909;1253;72527;-70
2023/11/02 11:31:48;;;;;;;6.30;3.80;;;;;;;18.73;48.52;99308.20;105711;1258;60437;-73
2023/11/02 11:34:16;;;;;;;6.00;3.40;;;;;;;18.32;49.29;99311.53;105842;1256;60280;-72
2023/11/02 11:36:43;;;;;;;4.60;3.30;;;;;;;17.99;49.95;99311.19;105744;1253;73898;-71
2023/11/02 11:39:37;;;;;;;5.60;4.00;;;;;;;17.64;50.22;99315.94;105865;1259;70365;-70
2023/11/02 11:42:05;;;;;;;4.90;3.90;;;;;;;17.17;51.28;99315.23;105890;1256;72578;-71
2023/11/02 11:44:32;;;;;;;6.00;3.50;;;;;;;16.84;52.15;99311.84;105585;1253;61054;-69
2023/11/02 11:47:00;;;;;;;3.50;3.10;;;;;;;16.54;52.70;99307.69;105503;1258;60486;-73
2023/11/02 11:49:49;;;;;;;5.00;3.60;;;;;;;16.20;53.44;99311.38;105835;1258;72648;-74
2023/11/02 11:52:23;;;;;;;5.30;3.20;;;;;;;15.81;54.48;99315.76;105688;1253;70783;-74
2023/11/02 11:54:51;;;;;;;3.80;3.30;;;;;;;15.44;55.33;99316.38;105865;1254;74876;-72